createdAt,value
2019-05-26T00:00:34.856Z,94.10
2019-05-26T00:03:06.375Z,94.10
2019-05-26T00:05:36.506Z,93.20
2019-05-26T00:08:06.663Z,93.20
2019-05-26T00:10:36.779Z,92.60
2019-05-26T00:13:06.944Z,93.20
2019-05-26T00:15:37.101Z,94.40
2019-05-26T00:18:07.219Z,94.80
2019-05-26T00:20:37.415Z,95.10
2019-05-26T00:23:07.516Z,95.70
2019-05-26T00:25:37.906Z,96.50
2019-05-26T00:28:08.009Z,95.20
2019-05-26T00:30:38.258Z,95.60
2019-05-26T00:33:08.403Z,95.40
2019-05-26T00:35:38.506Z,95.80
2019-05-26T00:38:08.603Z,95.60
2019-05-26T00:40:41.013Z,94.80
2019-05-26T00:43:11.209Z,93.70
2019-05-26T00:45:41.328Z,94.40
2019-05-26T00:48:14.079Z,95.20
2019-05-26T00:50:44.162Z,94.60
2019-05-26T00:53:14.302Z,93.80
2019-05-26T00:55:44.482Z,93.60
2019-05-26T00:58:14.607Z,92.40
2019-05-26T01:00:46.909Z,92.30
2019-05-26T01:03:17.358Z,92.50
2019-05-26T01:05:47.864Z,93.20
2019-05-26T01:08:18.856Z,94.00
2019-05-26T01:10:51.778Z,93.50
2019-05-26T01:13:23.493Z,92.70
2019-05-26T01:15:57.352Z,93.30
2019-05-26T01:18:29.453Z,94.30
2019-05-26T01:20:59.787Z,94.00
2019-05-26T01:23:31.723Z,94.30
2019-05-26T01:26:01.796Z,94.20
2019-05-26T01:28:31.878Z,94.10
2019-05-26T01:33:41.074Z,94.50
2019-05-26T01:36:11.672Z,95.20
2019-05-26T01:38:42.706Z,95.00
2019-05-26T01:41:13.733Z,95.10
2019-05-26T01:43:44.849Z,95.10
2019-05-26T01:46:16.915Z,95.80
2019-05-26T01:48:47.377Z,95.70
2019-05-26T01:51:17.543Z,95.70
2019-05-26T01:53:47.638Z,95.70
2019-05-26T01:56:17.695Z,95.90
2019-05-26T01:58:48.315Z,95.70
2019-05-26T02:01:19.875Z,95.00
2019-05-26T02:03:50.475Z,94.00
2019-05-26T02:06:20.868Z,94.10
2019-05-26T02:08:53.970Z,94.70
2019-05-26T02:11:25.671Z,94.70
2019-05-26T02:13:55.781Z,93.20
2019-05-26T02:16:28.640Z,93.40
2019-05-26T02:18:58.778Z,94.20
2019-05-26T02:21:29.063Z,94.10
2019-05-26T02:23:59.428Z,93.90
2019-05-26T02:26:29.544Z,93.50
2019-05-26T02:29:00.245Z,92.80
2019-05-26T02:31:34.008Z,93.20
2019-05-26T02:34:04.574Z,93.60
2019-05-26T02:36:34.727Z,94.00
2019-05-26T02:39:07.654Z,94.60
2019-05-26T02:41:37.814Z,94.10
2019-05-26T02:44:07.921Z,94.10
2019-05-26T02:46:40.765Z,94.70
2019-05-26T02:49:11.021Z,95.20
2019-05-26T02:51:41.169Z,94.70
2019-05-26T02:54:12.364Z,95.40
2019-05-26T02:56:42.877Z,95.30
2019-05-26T02:59:13.195Z,95.90
2019-05-26T03:02:02.383Z,96.20
2019-05-26T03:04:18.689Z,95.80
2019-05-26T03:06:49.893Z,95.60
2019-05-26T03:09:23.680Z,95.30
2019-05-26T03:11:54.892Z,95.60
2019-05-26T03:14:26.220Z,95.30
2019-05-26T03:16:58.547Z,95.30
2019-05-26T03:19:32.451Z,95.00
2019-05-26T03:22:07.334Z,95.20
2019-05-26T03:24:42.033Z,95.30
2019-05-26T03:27:14.610Z,95.00
2019-05-26T03:29:45.585Z,94.30
2019-05-26T03:32:17.423Z,92.80
2019-05-26T03:34:47.493Z,92.40
2019-05-26T03:37:17.877Z,91.60
2019-05-26T03:39:47.956Z,92.10
2019-05-26T03:42:18.158Z,92.40
2019-05-26T03:44:48.219Z,93.90
2019-05-26T03:47:20.985Z,94.40
2019-05-26T03:49:51.543Z,94.20
2019-05-26T03:52:21.943Z,94.90
2019-05-26T03:54:57.049Z,94.10
2019-05-26T03:57:33.253Z,93.80
2019-05-26T04:00:04.197Z,91.20
2019-05-26T04:02:40.768Z,91.10
2019-05-26T04:05:14.045Z,90.10
2019-05-26T04:07:45.929Z,90.40
2019-05-26T04:10:19.075Z,92.00
2019-05-26T04:12:49.527Z,92.40
2019-05-26T04:15:20.395Z,93.60
2019-05-26T04:17:50.514Z,94.40
2019-05-26T04:20:24.027Z,94.40
2019-05-26T04:22:57.090Z,92.30
2019-05-26T04:25:33.207Z,91.50
2019-05-26T04:28:04.250Z,91.90
2019-05-26T04:30:34.352Z,90.90
2019-05-26T04:33:05.968Z,92.20
2019-05-26T04:35:38.322Z,92.40
2019-05-26T04:38:09.435Z,93.30
2019-05-26T04:40:39.616Z,93.40
2019-05-26T04:43:14.845Z,93.60
2019-05-26T04:45:46.936Z,93.30
2019-05-26T04:48:17.811Z,94.10
2019-05-26T04:50:50.717Z,93.10
2019-05-26T04:53:25.602Z,93.50
2019-05-26T04:55:58.321Z,94.40
2019-05-26T04:58:38.797Z,93.80
2019-05-26T05:01:09.857Z,93.20
2019-05-26T05:03:39.966Z,92.40
2019-05-26T05:06:11.643Z,91.80
2019-05-26T05:08:42.944Z,91.90
2019-05-26T05:11:16.640Z,92.30
2019-05-26T05:13:48.622Z,91.60
2019-05-26T05:16:20.060Z,92.50
2019-05-26T05:18:52.228Z,92.50
2019-05-26T05:23:59.736Z,92.40
2019-05-26T05:26:30.785Z,92.00
2019-05-26T05:29:02.095Z,91.90
2019-05-26T05:31:32.663Z,91.60
2019-05-26T05:34:06.401Z,91.20
2019-05-26T05:36:37.880Z,90.80
2019-05-26T05:39:09.060Z,90.40
2019-05-26T05:41:41.660Z,91.80
2019-05-26T05:44:11.771Z,92.90
2019-05-26T05:46:45.300Z,93.20
2019-05-26T05:49:17.129Z,92.60
2019-05-26T05:51:47.335Z,92.00
2019-05-26T05:54:20.236Z,92.00
2019-05-26T05:56:55.770Z,91.50
2019-05-26T05:59:26.501Z,91.60
2019-05-26T06:01:56.632Z,90.90
2019-05-26T06:04:29.165Z,91.10
2019-05-26T06:06:59.724Z,90.40
2019-05-26T06:09:33.498Z,88.50
2019-05-26T06:12:03.642Z,90.00
2019-05-26T06:14:36.924Z,87.80
2019-05-26T06:17:13.150Z,87.60
2019-05-26T06:19:43.687Z,87.30
2019-05-26T06:22:17.317Z,86.90
2019-05-26T06:24:48.456Z,86.10
2019-05-26T06:27:18.908Z,85.10
2019-05-26T06:29:58.760Z,85.70
2019-05-26T06:32:25.471Z,85.40
2019-05-26T06:34:55.562Z,86.60
2019-05-26T06:37:28.261Z,85.00
2019-05-26T06:40:00.016Z,83.10
2019-05-26T06:42:31.590Z,82.70
2019-05-26T06:45:05.059Z,86.70
2019-05-26T06:47:35.377Z,85.70
2019-05-26T06:50:06.153Z,86.50
2019-05-26T06:52:36.704Z,82.70
2019-05-26T06:55:07.180Z,79.50
2019-05-26T06:57:37.453Z,80.70
2019-05-26T07:00:09.038Z,79.30
2019-05-26T07:02:39.123Z,76.20
2019-05-26T07:05:12.924Z,78.10
2019-05-26T07:07:46.101Z,75.90
2019-05-26T07:10:18.124Z,74.70
2019-05-26T07:12:48.523Z,77.40
2019-05-26T07:15:20.817Z,74.70
2019-05-26T07:17:51.973Z,77.30
2019-05-26T07:20:22.454Z,71.40
2019-05-26T07:22:54.747Z,65.00
2019-05-26T07:25:28.255Z,57.70
2019-05-26T07:27:59.130Z,51.30
2019-05-26T07:30:31.800Z,53.70
2019-05-26T07:33:07.385Z,53.80
2019-05-26T07:35:40.270Z,52.70
2019-05-26T07:38:12.167Z,51.60
2019-05-26T07:40:47.878Z,45.50
2019-05-26T07:43:37.215Z,51.70
2019-05-26T07:46:07.301Z,47.00
2019-05-26T07:48:37.444Z,49.30
2019-05-26T07:51:15.184Z,46.40
2019-05-26T07:53:46.802Z,44.70
2019-05-26T07:56:17.761Z,45.70
2019-05-26T08:00:01.948Z,44.20
2019-05-26T08:02:37.726Z,45.60
2019-05-26T08:05:08.163Z,41.10
2019-05-26T08:07:40.670Z,39.30
2019-05-26T08:10:15.456Z,41.70
2019-05-26T08:12:46.081Z,46.20
2019-05-26T08:15:17.415Z,42.20
2019-05-26T08:17:51.956Z,39.70
2019-05-26T08:20:27.879Z,43.10
2019-05-26T08:23:00.866Z,43.50
2019-05-26T08:25:36.259Z,37.70
2019-05-26T08:28:06.404Z,41.10
2019-05-26T08:30:36.484Z,40.10
2019-05-26T08:33:07.545Z,39.90
2019-05-26T08:35:37.621Z,37.30
2019-05-26T08:38:08.495Z,35.90
2019-05-26T08:40:40.190Z,41.50
2019-05-26T08:43:14.909Z,34.70
2019-05-26T08:45:44.968Z,39.70
2019-05-26T08:48:18.821Z,39.30
2019-05-26T08:50:51.354Z,34.80
2019-05-26T08:53:23.173Z,34.10
2019-05-26T08:55:56.666Z,34.50
2019-05-26T08:58:29.455Z,32.50
2019-05-26T09:01:02.698Z,32.20
2019-05-26T09:03:57.426Z,32.40
2019-05-26T09:08:59.166Z,31.50
2019-05-26T09:11:32.265Z,32.30
2019-05-26T09:14:02.617Z,33.00
2019-05-26T09:16:34.078Z,28.10
2019-05-26T09:19:05.727Z,32.50
2019-05-26T09:21:38.000Z,32.30
2019-05-26T09:24:09.791Z,29.50
2019-05-26T09:26:39.979Z,30.50
2019-05-26T09:29:10.433Z,29.60
2019-05-26T09:31:42.646Z,30.50
2019-05-26T09:34:16.977Z,30.90
2019-05-26T09:36:49.276Z,28.40
2019-05-26T09:39:21.338Z,29.70
2019-05-26T09:41:54.639Z,25.80
2019-05-26T09:44:24.823Z,27.10
2019-05-26T09:46:57.907Z,28.00
2019-05-26T09:49:41.380Z,26.90
2019-05-26T09:52:15.784Z,28.40
2019-05-26T09:54:45.893Z,29.80
2019-05-26T09:57:17.972Z,27.60
2019-05-26T09:59:51.176Z,25.70
2019-05-26T10:02:23.432Z,27.00
2019-05-26T10:04:55.635Z,26.70
2019-05-26T10:07:27.811Z,27.10
2019-05-26T10:10:02.502Z,28.10
2019-05-26T10:12:34.535Z,26.80
2019-05-26T10:15:05.680Z,26.90
2019-05-26T10:17:52.997Z,26.00
2019-05-26T10:20:23.546Z,26.90
2019-05-26T10:22:53.834Z,27.10
2019-05-26T10:25:27.520Z,27.30
2019-05-26T10:28:00.310Z,25.60
2019-05-26T10:30:32.120Z,21.90
2019-05-26T10:33:03.300Z,23.20
2019-05-26T10:35:35.709Z,24.00
2019-05-26T10:38:10.011Z,23.60
2019-05-26T10:40:42.995Z,23.20
2019-05-26T10:43:15.827Z,24.50
2019-05-26T10:45:54.674Z,23.60
2019-05-26T10:48:27.539Z,24.80
2019-05-26T10:51:06.970Z,22.30
2019-05-26T10:54:23.757Z,23.50
2019-05-26T10:57:22.409Z,25.40
2019-05-26T11:00:18.016Z,25.00
2019-05-26T11:02:48.945Z,23.60
2019-05-26T11:05:34.121Z,21.90
2019-05-26T11:08:07.307Z,21.00
2019-05-26T11:10:41.489Z,22.30
2019-05-26T11:13:14.169Z,20.30
2019-05-26T11:15:51.048Z,20.20
2019-05-26T11:18:26.247Z,18.10
2019-05-26T11:21:00.821Z,19.70
2019-05-26T11:23:36.933Z,19.40
2019-05-26T11:26:13.576Z,18.00
2019-05-26T11:28:54.007Z,18.10
2019-05-26T11:31:26.420Z,16.90
2019-05-26T11:33:59.045Z,17.60
2019-05-26T11:36:35.333Z,18.30
2019-05-26T11:42:12.981Z,17.60
2019-05-26T11:44:41.649Z,16.40
2019-05-26T11:47:20.591Z,14.40
2019-05-26T11:49:57.590Z,15.20
2019-05-26T11:52:38.112Z,16.00
2019-05-26T11:55:11.568Z,11.80
2019-05-26T11:57:47.937Z,14.60
2019-05-26T12:00:23.024Z,12.50
2019-05-26T12:02:54.575Z,13.50
2019-05-26T12:05:27.204Z,14.10
2019-05-26T12:07:58.666Z,16.60
2019-05-26T12:10:30.459Z,14.10
2019-05-26T12:13:11.263Z,14.30
2019-05-26T12:15:46.480Z,14.60
2019-05-26T12:18:17.692Z,15.70
2019-05-26T12:21:08.058Z,14.70
2019-05-26T12:23:39.462Z,16.00
2019-05-26T12:26:12.517Z,15.90
2019-05-26T12:28:50.969Z,14.50
2019-05-26T12:31:26.172Z,15.10
2019-05-26T12:34:09.229Z,14.40
2019-05-26T12:36:40.866Z,13.80
2019-05-26T12:39:16.875Z,16.20
2019-05-26T12:41:50.198Z,16.30
2019-05-26T12:44:29.172Z,17.20
2019-05-26T12:47:13.663Z,16.20
2019-05-26T12:50:04.271Z,15.10
2019-05-26T12:52:39.763Z,17.00
2019-05-26T12:55:19.429Z,16.90
2019-05-26T12:57:52.772Z,16.50
2019-05-26T13:00:23.676Z,16.70
2019-05-26T13:02:56.970Z,16.30
2019-05-26T13:05:29.662Z,16.80
2019-05-26T13:08:19.732Z,16.40
2019-05-26T13:10:53.342Z,16.30
2019-05-26T13:13:29.621Z,16.40
2019-05-26T13:16:17.365Z,14.50
2019-05-26T13:18:43.393Z,15.20
2019-05-26T13:21:16.232Z,14.10
2019-05-26T13:23:49.171Z,14.70
2019-05-26T13:26:29.250Z,15.10
2019-05-26T13:29:04.368Z,15.60
2019-05-26T13:31:35.524Z,13.20
2019-05-26T13:34:10.731Z,10.40
2019-05-26T13:36:44.216Z,9.30
2019-05-26T13:39:18.457Z,8.60
2019-05-26T13:42:01.883Z,7.10
2019-05-26T13:44:37.343Z,4.00
2019-05-26T13:47:25.651Z,4.90
2019-05-26T13:49:58.963Z,2.70
2019-05-26T13:52:29.725Z,2.50
2019-05-26T13:55:04.499Z,1.20
2019-05-26T13:57:36.931Z,1.00
2019-05-26T14:00:16.417Z,1.00
2019-05-26T14:02:54.527Z,1.00
2019-05-26T14:05:27.854Z,1.00
2019-05-26T14:07:59.968Z,1.00
2019-05-26T14:10:40.272Z,1.00
2019-05-26T14:13:11.570Z,1.70
2019-05-26T14:15:45.694Z,3.70
2019-05-26T14:18:18.181Z,5.40
2019-05-26T14:20:51.756Z,5.90
2019-05-26T14:23:28.707Z,5.30
2019-05-26T14:26:13.449Z,6.70
2019-05-26T14:28:50.331Z,7.80
2019-05-26T14:31:32.616Z,6.10
2019-05-26T14:34:05.216Z,5.20
2019-05-26T14:36:48.883Z,4.40
2019-05-26T14:39:22.802Z,3.00
2019-05-26T14:41:59.946Z,1.90
2019-05-26T14:44:34.276Z,1.00
2019-05-26T14:47:11.327Z,1.00
2019-05-26T14:49:48.482Z,1.60
2019-05-26T14:52:24.366Z,1.00
2019-05-26T14:55:02.038Z,2.30
2019-05-26T14:57:35.163Z,3.20
2019-05-26T15:00:15.830Z,2.60
2019-05-26T15:02:49.064Z,1.00
2019-05-26T15:05:20.012Z,1.30
2019-05-26T15:08:01.762Z,1.20
2019-05-26T15:10:32.109Z,1.90
2019-05-26T15:13:03.783Z,1.00
2019-05-26T15:15:35.383Z,2.40
2019-05-26T15:18:05.927Z,1.00
2019-05-26T15:20:37.116Z,1.00
2019-05-26T15:23:13.543Z,1.00
2019-05-26T15:25:44.383Z,1.00
2019-05-26T15:28:18.543Z,1.00
2019-05-26T15:33:29.882Z,1.00
2019-05-26T15:36:00.111Z,1.00
2019-05-26T15:38:42.395Z,1.00
2019-05-26T15:41:04.508Z,1.00
2019-05-26T15:43:35.380Z,1.00
2019-05-26T15:46:06.309Z,2.60
2019-05-26T15:48:36.635Z,3.80
2019-05-26T15:51:08.313Z,4.00
2019-05-26T15:53:39.656Z,3.20
2019-05-26T15:56:12.408Z,5.00
2019-05-26T15:58:43.602Z,4.60
2019-05-26T16:01:16.269Z,4.80
2019-05-26T16:03:48.735Z,3.50
2019-05-26T16:06:20.791Z,2.50
2019-05-26T16:08:52.282Z,1.00
2019-05-26T16:11:23.179Z,1.00
2019-05-26T16:14:00.020Z,1.00
2019-05-26T16:16:40.822Z,1.30
2019-05-26T16:19:06.175Z,3.20
2019-05-26T16:21:38.128Z,5.00
2019-05-26T16:24:08.499Z,7.30
2019-05-26T16:26:39.459Z,8.00
2019-05-26T16:29:12.660Z,8.60
2019-05-26T16:31:43.010Z,10.40
2019-05-26T16:34:14.969Z,10.50
2019-05-26T16:36:50.959Z,11.60
2019-05-26T16:39:35.855Z,10.40
2019-05-26T16:41:53.548Z,6.20
2019-05-26T16:44:23.843Z,4.30
2019-05-26T16:46:56.833Z,1.20
2019-05-26T16:49:29.765Z,1.00
2019-05-26T16:54:30.880Z,1.00
2019-05-26T16:57:01.327Z,1.00
2019-05-26T16:59:32.202Z,1.00
2019-05-26T17:02:04.144Z,1.00
2019-05-26T17:04:36.171Z,1.00
2019-05-26T17:07:08.677Z,1.00
2019-05-26T17:09:44.215Z,2.90
2019-05-26T17:12:14.904Z,4.80
2019-05-26T17:14:46.557Z,3.60
2019-05-26T17:17:21.728Z,2.40
2019-05-26T17:19:56.008Z,2.50
2019-05-26T17:22:29.731Z,3.30
2019-05-26T17:25:20.706Z,4.90
2019-05-26T17:27:52.323Z,5.40
2019-05-26T17:30:23.889Z,4.60
2019-05-26T17:32:55.029Z,5.30
2019-05-26T17:35:26.607Z,5.90
2019-05-26T17:38:00.623Z,6.20
2019-05-26T17:40:31.106Z,6.20
2019-05-26T17:43:04.630Z,7.10
2019-05-26T17:45:35.143Z,8.40
2019-05-26T17:48:05.922Z,9.60
2019-05-26T17:50:37.749Z,9.70
2019-05-26T17:53:10.289Z,10.30
2019-05-26T17:55:45.010Z,10.50
2019-05-26T17:58:15.581Z,10.10
2019-05-26T18:00:47.356Z,10.60
2019-05-26T18:03:20.168Z,10.40
2019-05-26T18:05:52.014Z,10.90
2019-05-26T18:08:24.430Z,11.50
2019-05-26T18:10:54.589Z,11.80
2019-05-26T18:13:27.014Z,11.90
2019-05-26T18:15:58.187Z,12.50
2019-05-26T18:18:28.984Z,11.80
2019-05-26T18:20:59.245Z,12.40
2019-05-26T18:23:29.479Z,13.30
2019-05-26T18:26:04.689Z,13.20
2019-05-26T18:28:35.124Z,13.70
2019-05-26T18:31:11.648Z,13.90
2019-05-26T18:33:45.704Z,14.10
2019-05-26T18:36:17.240Z,13.40
2019-05-26T18:38:48.341Z,13.40
2019-05-26T18:41:18.460Z,13.50
2019-05-26T18:46:44.045Z,14.20
2019-05-26T18:49:15.876Z,13.50
2019-05-26T18:51:47.769Z,13.40
2019-05-26T18:54:21.844Z,15.20
2019-05-26T18:56:52.412Z,14.10
2019-05-26T18:59:24.566Z,15.70
2019-05-26T19:01:56.676Z,14.70
2019-05-26T19:04:31.626Z,16.30
2019-05-26T19:07:06.196Z,15.30
2019-05-26T19:09:37.938Z,16.20
2019-05-26T19:12:10.512Z,17.00
2019-05-26T19:14:41.198Z,16.20
2019-05-26T19:17:13.537Z,20.30
2019-05-26T19:19:46.956Z,21.70
2019-05-26T19:22:19.321Z,22.70
2019-05-26T19:24:54.413Z,24.20
2019-05-26T19:27:28.676Z,26.10
2019-05-26T19:29:59.285Z,26.50
2019-05-26T19:32:31.857Z,27.60
2019-05-26T19:35:04.716Z,27.60
2019-05-26T19:37:35.934Z,28.60
2019-05-26T19:40:09.930Z,30.00
2019-05-26T19:42:40.990Z,32.00
2019-05-26T19:45:18.996Z,34.70
2019-05-26T19:47:50.009Z,36.80
2019-05-26T19:50:20.599Z,37.90
2019-05-26T19:52:51.252Z,37.80
2019-05-26T19:55:27.673Z,38.10
2019-05-26T19:58:00.925Z,38.50
2019-05-26T20:00:33.691Z,40.10
2019-05-26T20:03:08.116Z,41.70
2019-05-26T20:05:40.971Z,42.90
2019-05-26T20:08:13.605Z,40.60
2019-05-26T20:10:47.254Z,40.70
2019-05-26T20:13:20.582Z,41.90
2019-05-26T20:15:53.355Z,43.80
2019-05-26T20:18:33.726Z,46.50
2019-05-26T20:21:29.560Z,52.20
2019-05-26T20:24:00.896Z,52.70
2019-05-26T20:26:31.692Z,53.10
2019-05-26T20:29:04.904Z,53.40
2019-05-26T20:31:36.930Z,52.20
2019-05-26T20:34:47.826Z,52.90
2019-05-26T20:37:21.599Z,55.50
2019-05-26T20:39:57.530Z,55.90
2019-05-26T20:42:34.043Z,55.30
2019-05-26T20:45:08.580Z,56.40
2019-05-26T20:47:43.269Z,58.00
2019-05-26T20:50:28.753Z,61.50
2019-05-26T20:52:50.644Z,60.60
2019-05-26T20:55:20.955Z,62.40
2019-05-26T20:57:51.726Z,62.80
2019-05-26T21:00:26.093Z,63.00
2019-05-26T21:02:56.583Z,65.60
2019-05-26T21:05:29.779Z,66.00
2019-05-26T21:08:01.820Z,64.70
2019-05-26T21:10:37.238Z,62.20
2019-05-26T21:13:11.340Z,61.00
2019-05-26T21:15:45.768Z,62.30
2019-05-26T21:18:15.979Z,64.60
2019-05-26T21:20:47.760Z,65.10
2019-05-26T21:23:22.798Z,67.20
2019-05-26T21:25:55.676Z,66.70
2019-05-26T21:28:36.775Z,66.80
2019-05-26T21:31:11.485Z,70.60
2019-05-26T21:33:44.181Z,67.90
2019-05-26T21:36:15.472Z,69.20
2019-05-26T21:38:46.532Z,67.70
2019-05-26T21:41:20.461Z,70.40
2019-05-26T21:43:51.995Z,71.60
2019-05-26T21:46:23.240Z,69.30
2019-05-26T21:48:57.643Z,70.80
2019-05-26T21:51:27.922Z,71.60
2019-05-26T21:53:58.902Z,71.60
2019-05-26T21:56:29.449Z,73.30
2019-05-26T21:58:59.659Z,73.40
2019-05-26T22:01:31.261Z,75.40
2019-05-26T22:04:04.652Z,74.60
2019-05-26T22:06:34.736Z,75.00
2019-05-26T22:09:06.902Z,76.20
2019-05-26T22:11:43.620Z,71.00
2019-05-26T22:14:15.018Z,72.40
2019-05-26T22:16:47.889Z,70.40
2019-05-26T22:19:22.856Z,70.40
2019-05-26T22:21:56.988Z,70.40
2019-05-26T22:24:29.462Z,73.60
2019-05-26T22:27:13.620Z,75.90
2019-05-26T22:29:45.379Z,73.80
2019-05-26T22:32:18.129Z,78.10
2019-05-26T22:34:49.460Z,76.30
2019-05-26T22:37:20.398Z,76.00
2019-05-26T22:39:51.001Z,75.70
2019-05-26T22:42:21.495Z,78.20
2019-05-26T22:44:53.180Z,76.70
2019-05-26T22:47:26.334Z,77.80
2019-05-26T22:52:35.763Z,79.90
2019-05-26T22:55:07.736Z,78.70
2019-05-26T22:57:39.590Z,81.10
2019-05-26T23:00:12.529Z,80.30
2019-05-26T23:02:48.348Z,78.70
2019-05-26T23:05:18.513Z,80.90
2019-05-26T23:07:49.746Z,82.00
2019-05-26T23:10:24.763Z,80.50
2019-05-26T23:12:57.122Z,78.90
2019-05-26T23:15:30.129Z,80.20
2019-05-26T23:18:00.868Z,79.10
2019-05-26T23:20:34.991Z,78.50
2019-05-26T23:23:07.423Z,80.10
2019-05-26T23:25:37.560Z,81.00
2019-05-26T23:28:07.566Z,82.50
2019-05-26T23:30:38.428Z,83.00
2019-05-26T23:33:09.774Z,81.20
2019-05-26T23:35:39.928Z,81.60
2019-05-26T23:38:12.165Z,84.20
2019-05-26T23:40:42.716Z,82.80
2019-05-26T23:43:15.193Z,82.00
2019-05-26T23:45:46.593Z,82.70
2019-05-26T23:48:18.748Z,83.90
2019-05-26T23:50:48.856Z,82.20
2019-05-26T23:53:21.219Z,82.30
2019-05-26T23:55:59.851Z,84.90
2019-05-26T23:58:30.441Z,84.80
